ADDS METAR Data INFO
IDs: Format: Raw Decoded Include TAF

Data at: 1411 UTC 12 Dec 2017

PAIL 121353Z AUTO 09025G35KT 10SM FEW021 SCT034 OVC045 04/02 A2941 RMK AO2 PK WND 10035/1349 RAB08E48 SLP960 P0000 T00390017 TSNO
PAIL 121253Z AUTO 09022G33KT 10SM SCT026 04/02 A2939 RMK AO2 PK WND 08035/1226 SLP954 T00390017 TSNO
PAIL 121153Z AUTO 08017G27KT 10SM CLR 04/01 A2941 RMK AO2 PK WND 08035/1055 SLP959 60000 70039 T00440011 10050 20039 55010 TSNO
PAIL 121053Z AUTO 08020G29KT 10SM FEW029 FEW034 04/01 A2940 RMK AO2 PK WND 08034/1032 SLP956 T00440011 TSNO
PAIL 120953Z AUTO 08017G27KT 10SM BKN032 OVC049 04/02 A2942 RMK AO2 PK WND 07029/0902 SLP964 T00440017 TSNO
PAIL 120853Z AUTO 08015G21KT 10SM FEW030 BKN039 OVC050 04/01 A2944 RMK AO2 PK WND 09031/0756 SLP970 60000 T00440011 400560028 58006 TSNO
PAIL 120753Z AUTO 09023G32KT 10SM FEW031 BKN045 OVC055 04/01 A2944 RMK AO2 PK WND 10032/0752 RAB26E29 SLP972 P0000 T00440011 TSNO
PAIL 120653Z AUTO 08016G27KT 10SM FEW038 FEW048 OVC060 04/02 A2945 RMK AO2 PK WND 07029/0642 SLP975 T00390017 TSNO
PAIL 120645Z 08017G29KT 10SM FEW036 BKN049 OVC065 04/02 A2945 RMK AO2 PK WND 07029/0642 T00390017
PAIL 120553Z 09021G30KT 7SM BKN017 OVC021 04/02 A2945 RMK AO2 PK WND 09030/0546 RAE50 SLP976 P0001 60016 T00390017 10056 20033 58010
PAIL 120453Z 09018G25KT 6SM -RA BR BKN018 OVC023 03/02 A2948 RMK AO2 PK WND 09030/0354 SLP984 P0011 T00330022
PAIL 120353Z 09022G31KT 5SM RA BR OVC020 03/02 A2949 RMK AO2 PK WND 09031/0353 RAB10 SLP986 P0004 T00330022
PAIL 120314Z 09019G25KT 10SM -RA BKN028 BKN034 OVC041 04/02 A2948 RMK AO2 RAB10 P0000 T00390022
PAIL 120253Z 09016G23KT 10SM SCT028 OVC035 04/02 A2948 RMK AO2 RAE12 SLP986 P0000 60000 T00390022 50010
PAIL 120219Z 09014G22KT 10SM SCT028 OVC035 04/02 A2949 RMK AO2 RAE12 P0000 T00440017
PAIL 120204Z 10017G24KT 10SM -RA BKN028 OVC035 04/02 A2948 RMK AO2 P0000 T00440017
PAIL 120153Z 10016G24KT 10SM -RA FEW028 OVC039 04/02 A2949 RMK AO2 PK WND 12026/0058 RAB36 SLP986 P0000 T00440022
PAIL 120053Z 12016G26KT 10SM SCT045 BKN060 OVC090 05/01 A2947 RMK AO2 PK WND 11031/0037 SLP981 ACSL DSNT NE-SW T00500011
PAIL 112353Z 11014G24KT 10SM SCT045 SCT065 BKN130 05/01 A2945 RMK AO2 PK WND 11026/2311 SLP975 ACSL DSNT NE-SW 60010 T00500011 10056 20028 51035
PAIL 112253Z 12012KT 10SM SCT045 SCT065 BKN130 05/01 A2942 RMK AO2 SLP966 T00500011
PAIL 112153Z 10011KT 10SM BKN075 05/01 A2940 RMK AO2 SLP957 T00500011
PAIL 112053Z 06004KT 10SM OVC065 04/03 A2935 RMK AO2 RAE10 SLP940 P0000 60010 T00390033 51071
PAIL 111953Z 00000KT 10SM -RA OVC035 03/03 A2930 RMK AO2 RAE26B42 SLP923 P0001 T00330028
PAIL 111853Z 00000KT 10SM -RA OVC031 03/02 A2923 RMK AO2 PRESRR SLP900 P0009 T00280022
PAIL 111753Z 18010KT 6SM RA BR SCT010 OVC023 04/03 A2914 RMK AO2 PRESRR SLP869 P0005 60013 T00390033 10050 20039 53075
PAIL 111716Z 14006KT 10SM -RA OVC029 04/03 A2907 RMK AO2 PRESRR P0001 T00440033
PAIL 111653Z 11007KT 10SM -RA OVC031 04/03 A2904 RMK AO2 PRESRR SLP834 P0003 T00440033
PAIL 111553Z 12009KT 10SM RA OVC035 05/03 A2898 RMK AO2 PRESRR SLP813 P0003 T00500028
PAIL 111453Z 10008KT 10SM -RA OVC035 05/03 A2891 RMK AO2 SLP792 P0002 60002 T00500028 53042
PAIL 111353Z AUTO 10008KT 10SM -RA OVC038 04/02 A2886 RMK AO2 RAB52 SLP775 P0000 T00440022 TSNO
PAIL 111253Z AUTO 09013KT 10SM OVC044 04/02 A2882 RMK AO2 SLP759 T00440022 TSNO
PAIL 111153Z AUTO 07015G22KT 10SM OVC050 05/02 A2879 RMK AO2 SLP751 60000 70006 T00500017 10056 20039 53005 TSNO
PAIL 111053Z AUTO 03011KT 10SM OVC050 05/01 A2877 RMK AO2 RAE05B35E47 SLP744 P0000 T00500011 TSNO
PAIL 110953Z AUTO 05009KT 10SM -RA OVC050 04/01 A2877 RMK AO2 RAB53 SLP742 P0000 T00440011 TSNO
PAIL 110853Z AUTO 04009G17KT 10SM BKN070 OVC090 05/01 A2878 RMK AO2 SLP746 T00500011 400501017 56028 TSNO
PAIL 110753Z AUTO 04012KT 10SM BKN055 OVC080 05/01 A2879 RMK AO2 SLP752 T00500006 TSNO
PAIL 110653Z AUTO 02008G20KT 10SM SCT065 BKN080 OVC095 05/01 A2881 RMK AO2 PK WND 01026/0624 SLP759 T00500006 TSNO
PAIL 110553Z 02014G23KT 10SM OVC060 04/01 A2886 RMK AO2 RAE0457 SLP776 P0000 60000 T00390011 10050 20039 56079
PAIL 110453Z 01013G21KT 10SM -RA OVC050 04/01 A2893 RMK AO2 RAE20B37 PRESFR SLP797 P0000 T00390006
PAIL 110353Z 01008KT 10SM -RA FEW027 OVC060 04/00 A2900 RMK AO2 RAB46 PRESFR SLP824 P0000 T00390000
PAIL 110253Z 02007KT 10SM FEW027 BKN060 OVC070 04/00 A2910 RMK AO2 PRESFR SLP855 T00390000 58075